Time;durP1;ratioP1;P1;durP2;ratioP2;P2;SDS_P1;SDS_P2;PMS_P1;PMS_P2;Temp;Humidity;BMP_temperature;BMP_pressure;BME280_temperature;BME280_humidity;BME280_pressure;Samples;Min_cycle;Max_cycle;Signal;HPM_P1;HPM_P2
2023/12/21 05:06:18;;;;;;;10.70;6.10;;;;;;;3.98;100.00;69002.81;5328891;33;20114;-87
2023/12/21 05:09:21;;;;;;;12.02;5.75;;;;;;;3.97;100.00;68946.16;5318875;33;33280;-87
2023/12/21 05:12:27;;;;;;;11.10;6.03;;;;;;;3.90;100.00;68943.38;5332336;33;34111;-86
2023/12/21 05:15:30;;;;;;;10.38;5.43;;;;;;;3.76;100.00;68925.69;5315709;33;33797;-86
2023/12/21 05:18:35;;;;;;;11.63;5.28;;;;;;;3.55;100.00;68898.81;5305185;33;34526;-86
2023/12/21 05:21:39;;;;;;;7.00;5.00;;;;;;;3.54;100.00;68956.34;5327302;33;33426;-85
2023/12/21 05:24:42;;;;;;;8.93;5.10;;;;;;;3.37;100.00;68879.16;5332333;33;33532;-86
2023/12/21 05:27:45;;;;;;;9.73;5.30;;;;;;;3.30;100.00;68871.06;5317352;33;35004;-86
2023/12/21 05:30:50;;;;;;;11.20;4.90;;;;;;;3.10;100.00;68848.56;5303745;33;33265;-86
2023/12/21 05:33:54;;;;;;;6.03;4.53;;;;;;;3.17;100.00;68914.72;5303067;33;33096;-85
2023/12/21 05:36:59;;;;;;;7.78;4.85;;;;;;;3.04;100.00;68899.09;5315293;33;33080;-86
2023/12/21 05:40:02;;;;;;;8.77;5.05;;;;;;;3.01;100.00;68838.16;5303732;33;33424;-86
2023/12/21 05:43:05;;;;;;;9.95;5.00;;;;;;;2.95;100.00;68886.63;5315125;33;33286;-86
2023/12/21 05:46:16;;;;;;;9.48;4.82;;;;;;;2.91;100.00;68826.63;5304931;33;33521;-90
2023/12/21 05:49:19;;;;;;;8.43;5.22;;;;;;;2.94;100.00;68832.72;5317659;33;33244;-90
2023/12/21 05:52:23;;;;;;;7.60;4.93;;;;;;;3.00;100.00;68836.44;5317158;33;32784;-86
2023/12/21 05:55:25;;;;;;;8.07;3.95;;;;;;;3.00;100.00;68834.38;5303956;33;33580;-86
2023/12/21 05:58:28;;;;;;;6.50;4.10;;;;;;;3.00;100.00;68839.06;5330703;33;33474;-86
2023/12/21 06:01:33;;;;;;;6.32;3.47;;;;;;;2.98;100.00;68892.16;5315185;33;33448;-85
2023/12/21 06:04:36;;;;;;;9.18;4.32;;;;;;;2.90;100.00;68828.69;5315307;33;33908;-86
2023/12/21 06:07:39;;;;;;;4.47;3.05;;;;;;;2.95;100.00;68889.88;5327495;33;33421;-86
2023/12/21 06:10:42;;;;;;;6.43;4.25;;;;;;;2.84;100.00;68819.13;5314624;33;33486;-86
2023/12/21 06:13:45;;;;;;;6.22;4.03;;;;;;;2.72;100.00;68807.91;5302481;33;33920;-86
2023/12/21 06:16:48;;;;;;;6.18;4.40;;;;;;;2.69;100.00;68860.41;5314393;33;34037;-86
2023/12/21 06:19:52;;;;;;;5.78;3.60;;;;;;;2.65;100.00;68797.19;5315035;33;34771;-86
2023/12/21 06:22:55;;;;;;;6.07;3.70;;;;;;;2.50;100.00;68781.03;5314801;33;33239;-86
2023/12/21 06:25:58;;;;;;;5.15;3.75;;;;;;;2.40;100.00;68827.50;5314419;33;33199;-86
2023/12/21 06:29:01;;;;;;;5.55;4.30;;;;;;;2.34;100.00;68819.97;5314794;33;33578;-86
2023/12/21 06:32:06;;;;;;;6.97;4.12;;;;;;;2.31;100.00;68813.88;5304192;33;34010;-86
2023/12/21 06:35:09;;;;;;;5.40;3.78;;;;;;;2.32;100.00;68762.31;5304089;33;33337;-86
2023/12/21 06:38:12;;;;;;;9.48;4.78;;;;;;;2.30;100.00;68760.59;5315185;33;34152;-86
2023/12/21 06:41:16;;;;;;;13.75;5.85;;;;;;;2.22;100.00;68749.31;5327858;33;33462;-86
2023/12/21 06:44:19;;;;;;;12.02;4.28;;;;;;;2.18;100.00;68744.09;5303234;33;33940;-86
2023/12/21 06:47:22;;;;;;;7.53;4.32;;;;;;;2.11;100.00;68733.97;5315730;33;33538;-85
2023/12/21 06:50:25;;;;;;;9.10;5.25;;;;;;;2.09;100.00;68733.72;5319067;33;33533;-86
2023/12/21 06:53:29;;;;;;;9.73;4.97;;;;;;;2.06;100.00;68730.28;5336109;33;33761;-86
2023/12/21 06:56:32;;;;;;;10.40;5.43;;;;;;;1.87;100.00;68709.50;5305258;33;33409;-86
2023/12/21 06:59:37;;;;;;;7.87;5.18;;;;;;;1.83;100.00;68762.25;5315300;33;33379;-86
2023/12/21 07:02:40;;;;;;;9.48;5.43;;;;;;;1.85;100.00;68707.19;5314729;33;33381;-86
2023/12/21 07:05:43;;;;;;;9.75;5.72;;;;;;;1.73;100.00;68696.56;5327959;33;34431;-85
2023/12/21 07:08:47;;;;;;;11.38;6.53;;;;;;;1.64;100.00;68682.97;5314756;33;33458;-86
2023/12/21 07:11:50;;;;;;;14.65;6.70;;;;;;;1.72;100.00;68689.56;5327763;33;33213;-85
2023/12/21 07:14:53;;;;;;;13.57;7.35;;;;;;;1.70;100.00;68693.13;5322349;33;33209;-86
2023/12/21 07:17:56;;;;;;;12.27;7.65;;;;;;;1.69;100.00;68691.94;5327971;33;34542;-86
2023/12/21 07:20:59;;;;;;;13.82;7.93;;;;;;;1.79;100.00;68700.84;5328885;33;34926;-86
2023/12/21 07:24:02;;;;;;;14.80;7.45;;;;;;;1.72;100.00;68692.19;5316331;33;34266;-86
2023/12/21 07:27:05;;;;;;;17.73;8.10;;;;;;;1.64;100.00;68682.97;5337749;33;34984;-86
2023/12/21 07:30:09;;;;;;;13.90;7.30;;;;;;;1.59;100.00;68677.78;5326185;33;34885;-86
2023/12/21 07:33:12;;;;;;;14.90;9.25;;;;;;;1.53;100.00;68728.78;5303426;33;33105;-86
2023/12/21 07:36:15;;;;;;;15.23;8.60;;;;;;;1.56;100.00;68674.34;5314461;33;33689;-86
2023/12/21 07:39:19;;;;;;;16.48;8.57;;;;;;;1.60;100.00;68736.84;5327452;33;33854;-86
2023/12/21 07:42:24;;;;;;;19.05;9.57;;;;;;;1.56;100.00;68677.53;5314989;33;33665;-85
2023/12/21 07:45:27;;;;;;;17.80;8.85;;;;;;;1.55;100.00;68731.69;5317757;33;33603;-85
2023/12/21 07:48:31;;;;;;;27.52;9.52;;;;;;;1.59;100.00;68736.28;5317079;33;33448;-85
2023/12/21 07:51:34;;;;;;;17.45;8.70;;;;;;;1.65;100.00;68684.13;5306479;33;33731;-85
2023/12/21 07:54:37;;;;;;;18.23;10.10;;;;;;;1.77;100.00;68756.47;5303900;33;34626;-85
2023/12/21 07:57:40;;;;;;;19.02;10.10;;;;;;;1.85;100.00;68764.56;5317243;33;33201;-90
2023/12/21 08:00:43;;;;;;;18.73;8.85;;;;;;;1.95;100.00;68716.09;5302477;33;33554;-90
2023/12/21 08:03:46;;;;;;;17.10;9.27;;;;;;;2.22;100.00;68804.66;5314191;33;33547;-89
2023/12/21 08:06:49;;;;;;;17.87;8.90;;;;;;;2.67;100.00;68858.09;5301847;33;33886;-90
2023/12/21 08:09:53;;;;;;;15.38;8.02;;;;;;;3.23;100.00;68859.78;5313994;33;32933;-86
2023/12/21 08:12:58;;;;;;;15.35;9.13;;;;;;;3.59;100.00;68962.09;5302558;33;33476;-86
2023/12/21 08:16:01;;;;;;;16.42;7.97;;;;;;;3.78;100.00;68925.38;5302477;33;34248;-86
2023/12/21 08:19:04;;;;;;;15.07;8.52;;;;;;;3.85;100.00;68936.09;5312990;33;34223;-86
2023/12/21 08:22:09;;;;;;;14.77;8.57;;;;;;;3.89;100.00;68936.91;5325913;33;33282;-86
2023/12/21 08:25:12;;;;;;;17.58;9.02;;;;;;;3.92;100.00;68940.38;5313090;33;33596;-85
2023/12/21 08:28:17;;;;;;;17.83;8.52;;;;;;;4.00;100.00;68949.63;5313547;33;33768;-86
2023/12/21 08:31:26;;;;;;;17.98;8.85;;;;;;;4.07;100.00;68960.38;5294204;33;32966;-86
2023/12/21 08:34:31;;;;;;;21.70;9.88;;;;;;;3.95;100.00;69001.97;5300381;33;33543;-86
2023/12/21 08:37:34;;;;;;;19.58;9.35;;;;;;;4.00;100.00;68949.63;5307408;33;33311;-86
2023/12/21 08:40:38;;;;;;;16.30;8.77;;;;;;;3.94;100.00;69001.41;5278099;33;33493;-86
2023/12/21 08:43:42;;;;;;;17.73;9.57;;;;;;;3.92;100.00;68943.63;5289879;33;33518;-86
2023/12/21 08:46:45;;;;;;;21.15;10.50;;;;;;;3.79;100.00;68981.44;5290282;33;34210;-86
2023/12/21 08:49:48;;;;;;;15.70;8.65;;;;;;;3.63;100.00;68966.16;5289864;33;33046;-86
2023/12/21 08:52:53;;;;;;;16.30;8.68;;;;;;;3.63;100.00;68908.63;5289093;33;33167;-86
2023/12/21 08:55:56;;;;;;;18.83;10.02;;;;;;;3.77;100.00;68926.28;5290836;33;33304;-85
2023/12/21 08:59:00;;;;;;;19.52;9.40;;;;;;;3.77;100.00;68923.63;5277851;33;34130;-86
2023/12/21 09:02:04;;;;;;;17.65;9.02;;;;;;;3.85;100.00;68991.59;5294839;33;33822;-86
2023/12/21 09:05:07;;;;;;;17.85;8.80;;;;;;;4.10;100.00;68958.56;5286646;33;33405;-86
2023/12/21 09:08:10;;;;;;;15.90;8.63;;;;;;;4.26;100.00;68982.31;5318527;33;33364;-86
2023/12/21 09:11:13;;;;;;;14.02;8.80;;;;;;;4.34;100.00;69046.53;5318178;33;33407;-86
2023/12/21 09:14:16;;;;;;;16.30;8.23;;;;;;;4.40;100.00;68997.34;5308546;33;33577;-86
2023/12/21 09:17:19;;;;;;;16.55;9.23;;;;;;;4.54;100.00;69067.03;5306030;33;33519;-85
2023/12/21 09:20:24;;;;;;;16.08;9.20;;;;;;;4.53;100.00;69012.97;5305918;33;33519;-85
2023/12/21 09:23:27;;;;;;;16.10;9.23;;;;;;;4.62;100.00;69080.41;5306760;33;33477;-85
2023/12/21 09:26:30;;;;;;;16.87;9.13;;;;;;;4.78;100.00;69096.28;5317464;33;33413;-85
2023/12/21 09:29:33;;;;;;;15.43;8.82;;;;;;;4.94;100.00;69055.97;5317635;33;33563;-85
2023/12/21 09:32:39;;;;;;;14.43;7.78;;;;;;;5.10;100.00;69074.50;5307672;33;34119;-85
2023/12/21 09:35:42;;;;;;;16.52;10.00;;;;;;;4.98;100.00;69061.19;5327747;33;33233;-85
2023/12/21 09:38:46;;;;;;;15.05;7.72;;;;;;;5.04;100.00;69067.00;5313331;33;33356;-85
2023/12/21 09:41:49;;;;;;;16.77;8.43;;;;;;;4.87;100.00;69051.13;5321953;33;33807;-85
2023/12/21 09:45:05;;;;;;;14.55;8.63;;;;;;;4.76;100.00;69035.75;5321906;33;33808;-85
2023/12/21 09:48:10;;;;;;;17.00;8.35;;;;;;;4.76;100.00;69038.41;5321562;33;33946;-85
2023/12/21 09:51:16;;;;;;;16.55;8.35;;;;;;;4.90;100.00;69051.94;5315262;33;34226;-85
2023/12/21 09:54:21;;;;;;;19.05;8.82;;;;;;;5.10;100.00;69076.56;5327223;33;33768;-89
2023/12/21 09:57:25;;;;;;;16.77;8.50;;;;;;;5.08;100.00;69072.19;5314180;33;34157;-90
2023/12/21 10:00:29;;;;;;;16.20;7.93;;;;;;;5.05;100.00;69071.34;5313269;33;34217;-86
2023/12/21 10:03:33;;;;;;;14.07;7.75;;;;;;;4.99;100.00;69065.00;5302166;33;32863;-86
2023/12/21 10:06:37;;;;;;;14.93;7.97;;;;;;;5.00;100.00;69068.22;5326437;33;33430;-86
2023/12/21 10:09:40;;;;;;;15.25;7.82;;;;;;;5.03;100.00;69068.47;5326603;33;33350;-86
2023/12/21 10:12:44;;;;;;;17.23;9.07;;;;;;;4.91;100.00;69110.75;5324805;33;33555;-86
2023/12/21 10:15:57;;;;;;;18.42;8.48;;;;;;;4.75;100.00;69035.19;5313584;33;33314;-86
2023/12/21 10:19:01;;;;;;;14.25;7.78;;;;;;;4.97;100.00;69062.09;5325828;33;33426;-85
2023/12/21 10:22:05;;;;;;;16.55;8.02;;;;;;;5.13;100.00;69077.41;5301186;33;33652;-85
2023/12/21 10:25:10;;;;;;;14.68;7.72;;;;;;;5.21;100.00;69089.88;5326008;33;34426;-85
2023/12/21 10:28:13;;;;;;;13.70;7.28;;;;;;;5.42;100.00;69168.66;5314424;33;33072;-85
2023/12/21 10:31:16;;;;;;;14.73;6.65;;;;;;;5.52;100.00;69124.56;5303322;33;33845;-85
2023/12/21 10:34:19;;;;;;;14.95;7.50;;;;;;;5.63;100.00;69134.09;5302442;33;33437;-85
2023/12/21 10:37:23;;;;;;;12.18;6.32;;;;;;;5.85;100.00;69217.88;5314246;33;33235;-85
2023/12/21 10:40:26;;;;;;;12.57;7.03;;;;;;;6.03;100.00;69182.50;5326117;33;33032;-85
2023/12/21 10:43:29;;;;;;;11.68;6.05;;;;;;;6.11;100.00;69246.84;5325303;33;34145;-85
2023/12/21 10:46:34;;;;;;;13.10;5.97;;;;;;;6.11;100.00;69191.75;5300994;33;33537;-85
2023/12/21 10:49:39;;;;;;;13.73;6.28;;;;;;;6.24;100.00;69205.66;5313842;33;33429;-85
2023/12/21 10:52:44;;;;;;;12.75;6.05;;;;;;;6.36;100.00;69219.53;5326292;33;33423;-85
2023/12/21 10:55:49;;;;;;;10.98;5.57;;;;;;;6.52;100.00;69287.91;5325003;33;32920;-85
2023/12/21 10:58:53;;;;;;;13.98;6.43;;;;;;;6.53;100.00;69238.66;5312230;33;34291;-85
2023/12/21 11:01:56;;;;;;;11.48;5.87;;;;;;;6.60;100.00;69246.75;5300714;33;33047;-85
2023/12/21 11:05:00;;;;;;;9.45;6.47;;;;;;;6.85;100.00;69271.91;5300736;33;33039;-85
2023/12/21 11:08:04;;;;;;;10.85;6.22;;;;;;;6.87;100.00;69277.44;5325126;33;33546;-85
2023/12/21 11:11:09;;;;;;;11.75;6.12;;;;;;;6.86;100.00;69332.06;5312946;33;34670;-85
2023/12/21 11:14:12;;;;;;;11.65;6.22;;;;;;;7.10;100.00;69359.31;5325558;33;33006;-85
2023/12/21 11:17:17;;;;;;;10.82;5.95;;;;;;;7.15;100.00;69308.75;5325731;33;35328;-85
2023/12/21 11:20:24;;;;;;;12.27;6.30;;;;;;;7.52;100.00;69347.78;5325988;33;33423;-85
2023/12/21 11:23:44;;;;;;;11.73;6.15;;;;;;;7.73;100.00;69372.16;5325829;33;33514;-85
2023/12/21 11:26:49;;;;;;;19.77;6.65;;;;;;;8.25;100.00;69492.53;5312572;33;33122;-85
2023/12/21 11:29:53;;;;;;;14.48;6.72;;;;;;;8.34;100.00;69444.41;5324869;33;33644;-87
2023/12/21 11:33:08;;;;;;;12.30;6.37;;;;;;;8.37;100.00;69450.56;5311707;33;34337;-89
2023/12/21 11:36:22;;;;;;;11.15;6.05;;;;;;;8.80;100.00;69493.38;5314726;33;33427;-86
2023/12/21 11:39:28;;;;;;;11.38;5.95;;;;;;;8.67;100.00;69481.56;5313791;33;33062;-85
2023/12/21 11:42:36;;;;;;;9.73;5.55;;;;;;;8.38;100.00;69448.47;5313388;33;33554;-85
2023/12/21 11:45:47;;;;;;;9.98;5.87;;;;;;;8.11;100.00;69417.72;5326249;33;33416;-85
2023/12/21 11:48:50;;;;;;;12.68;6.60;;;;;;;7.88;100.00;69389.53;5312007;33;33224;-85
2023/12/21 11:51:53;;;;;;;12.88;5.35;;;;;;;7.75;100.00;69373.88;5325029;33;33816;-85
2023/12/21 11:54:56;;;;;;;12.02;5.28;;;;;;;7.59;100.00;69361.25;5311861;33;34830;-85
2023/12/21 11:58:07;;;;;;;10.23;5.60;;;;;;;7.61;100.00;69363.56;5310974;33;33504;-85
2023/12/21 12:01:22;;;;;;;6.30;4.32;;;;;;;7.55;100.00;69413.03;5325151;33;34102;-85
2023/12/21 12:04:25;;;;;;;10.10;5.18;;;;;;;7.39;100.00;69333.91;5311807;33;34182;-85
2023/12/21 12:07:31;;;;;;;9.30;5.47;;;;;;;7.24;100.00;69377.63;5300980;33;33549;-85
2023/12/21 12:10:35;;;;;;;7.00;4.35;;;;;;;7.16;100.00;69310.47;5325440;33;33025;-85
2023/12/21 12:13:38;;;;;;;8.82;4.97;;;;;;;7.22;100.00;69370.56;5302949;33;33664;-85
2023/12/21 12:16:41;;;;;;;8.07;4.32;;;;;;;7.31;100.00;69324.03;5303528;33;33563;-85
2023/12/21 12:19:44;;;;;;;8.63;5.18;;;;;;;7.30;100.00;69326.13;5311797;33;33596;-85
2023/12/21 12:22:52;;;;;;;8.38;4.93;;;;;;;7.26;100.00;69322.06;5300166;33;33302;-85
2023/12/21 12:25:55;;;;;;;11.68;5.43;;;;;;;7.27;100.00;69381.69;5325037;33;33134;-85
2023/12/21 12:28:59;;;;;;;9.27;5.55;;;;;;;7.35;100.00;69387.72;5325163;33;33655;-85
2023/12/21 12:32:01;;;;;;;9.32;5.65;;;;;;;7.38;100.00;69338.06;5327694;33;33774;-86
2023/12/21 12:35:07;;;;;;;12.52;5.80;;;;;;;7.25;100.00;69320.91;5303198;33;33829;-85
2023/12/21 12:38:10;;;;;;;11.57;5.90;;;;;;;7.00;100.00;69294.59;5323207;33;34830;-86
2023/12/21 12:41:24;;;;;;;13.07;5.82;;;;;;;6.77;100.00;69268.53;5306674;33;35570;-86
2023/12/21 12:44:27;;;;;;;10.45;5.70;;;;;;;6.64;100.00;69250.81;5321758;33;33694;-85
2023/12/21 12:47:31;;;;;;;10.65;5.70;;;;;;;6.68;100.00;69252.78;5300327;33;34658;-86
2023/12/21 12:50:35;;;;;;;10.48;5.78;;;;;;;6.68;100.00;69311.78;5324785;33;34670;-86
2023/12/21 12:53:42;;;;;;;13.65;6.32;;;;;;;6.71;100.00;69312.00;5311961;33;33665;-89
2023/12/21 12:56:48;;;;;;;10.82;5.82;;;;;;;6.70;100.00;69314.09;5324971;33;34680;-90
2023/12/21 12:59:57;;;;;;;10.07;5.70;;;;;;;6.64;100.00;69250.81;5324723;33;33013;-86
2023/12/21 13:03:00;;;;;;;10.40;5.95;;;;;;;6.59;100.00;69245.59;5324306;33;33053;-86
2023/12/21 13:06:04;;;;;;;9.70;5.72;;;;;;;6.64;100.00;69250.81;5334804;33;33577;-86
2023/12/21 13:09:20;;;;;;;10.82;6.07;;;;;;;6.61;100.00;69303.06;5295960;33;34036;-86
2023/12/21 13:12:23;;;;;;;11.75;5.78;;;;;;;6.51;100.00;69289.97;5306127;33;33736;-86
2023/12/21 13:15:26;;;;;;;12.57;6.28;;;;;;;6.41;100.00;69228.00;5317506;33;33478;-86
2023/12/21 13:18:29;;;;;;;11.12;5.70;;;;;;;6.43;100.00;69283.34;5338348;33;33764;-86
2023/12/21 13:21:33;;;;;;;10.27;5.47;;;;;;;6.40;100.00;69220.94;5307009;33;33544;-86
2023/12/21 13:24:37;;;;;;;11.55;6.30;;;;;;;6.33;100.00;69216.63;5325252;33;33402;-86
2023/12/21 13:27:40;;;;;;;12.02;6.45;;;;;;;6.28;100.00;69266.56;5326671;33;33416;-86
2023/12/21 13:30:45;;;;;;;10.80;5.82;;;;;;;6.20;100.00;69201.00;5320930;33;33570;-86
2023/12/21 13:33:48;;;;;;;13.27;6.60;;;;;;;6.28;100.00;69265.97;5323390;33;33102;-86
2023/12/21 13:36:53;;;;;;;8.55;5.80;;;;;;;6.19;100.00;69199.84;5321407;33;33780;-86
2023/12/21 13:39:56;;;;;;;14.15;6.62;;;;;;;6.19;100.00;69197.78;5312682;33;34950;-86
2023/12/21 13:42:59;;;;;;;11.73;6.57;;;;;;;6.10;100.00;69190.59;5324962;33;33432;-85
2023/12/21 13:46:02;;;;;;;12.77;6.60;;;;;;;6.06;100.00;69185.97;5314458;33;33226;-86
2023/12/21 13:49:06;;;;;;;13.25;7.32;;;;;;;6.00;100.00;69234.13;5319692;33;33279;-86
2023/12/21 13:52:09;;;;;;;13.23;6.57;;;;;;;5.84;100.00;69157.81;5325423;33;33838;-86
2023/12/21 13:55:12;;;;;;;10.85;6.62;;;;;;;5.80;100.00;69156.41;5327144;33;34052;-86
2023/12/21 13:58:15;;;;;;;12.50;6.30;;;;;;;5.84;100.00;69161.03;5337869;33;33250;-86
2023/12/21 14:01:22;;;;;;;11.77;6.78;;;;;;;5.89;100.00;69163.59;5314049;33;33016;-86
2023/12/21 14:04:25;;;;;;;10.90;6.18;;;;;;;5.82;100.00;69214.41;5331861;33;34512;-86
2023/12/21 14:07:29;;;;;;;13.10;6.97;;;;;;;5.85;100.00;69162.22;5319415;33;33470;-87
2023/12/21 14:10:34;;;;;;;12.15;6.57;;;;;;;5.76;100.00;69148.53;5319516;33;34164;-86
2023/12/21 14:13:39;;;;;;;10.73;6.50;;;;;;;5.86;100.00;69160.72;5309293;33;33308;-86
2023/12/21 14:16:42;;;;;;;9.18;5.68;;;;;;;5.87;100.00;69220.19;5319584;33;34670;-86
2023/12/21 14:19:45;;;;;;;13.60;6.32;;;;;;;5.97;100.00;69172.88;5318978;33;34527;-86
2023/12/21 14:22:49;;;;;;;12.20;5.80;;;;;;;5.97;100.00;69174.94;5319550;33;33512;-86
2023/12/21 14:25:53;;;;;;;12.20;6.40;;;;;;;5.88;100.00;69163.03;5312256;33;33309;-86
2023/12/21 14:28:56;;;;;;;14.27;6.28;;;;;;;5.87;100.00;69161.28;5310558;33;34278;-86
2023/12/21 14:31:59;;;;;;;10.20;5.53;;;;;;;5.86;100.00;69218.44;5307890;33;34178;-86
2023/12/21 14:35:03;;;;;;;9.23;5.82;;;;;;;5.89;100.00;69166.25;5320256;33;34083;-86
2023/12/21 14:38:07;;;;;;;11.65;6.50;;;;;;;5.86;100.00;69163.34;5306829;33;33334;-86
2023/12/21 14:41:10;;;;;;;10.32;5.97;;;;;;;5.86;100.00;69162.78;5308049;33;33107;-86
2023/12/21 14:44:14;;;;;;;10.15;5.90;;;;;;;5.82;100.00;69213.81;5308956;33;33265;-90
2023/12/21 14:47:17;;;;;;;13.10;7.72;;;;;;;5.69;100.00;69199.34;5320056;33;33232;-91
2023/12/21 14:50:20;;;;;;;10.82;6.15;;;;;;;5.54;100.00;69126.91;5321197;33;32642;-90
2023/12/21 14:53:23;;;;;;;11.63;6.37;;;;;;;5.43;100.00;69169.81;5308350;33;33310;-87
2023/12/21 14:56:26;;;;;;;10.88;5.65;;;;;;;5.30;100.00;69097.06;5309006;33;33538;-87
2023/12/21 14:59:29;;;;;;;11.95;6.45;;;;;;;5.31;100.00;69098.22;5319726;33;33378;-87
2023/12/21 15:02:32;;;;;;;9.43;5.85;;;;;;;5.33;100.00;69103.19;5319546;33;33000;-86
2023/12/21 15:05:35;;;;;;;9.80;5.95;;;;;;;5.31;100.00;69155.91;5331272;33;33068;-86
2023/12/21 15:08:38;;;;;;;10.77;5.93;;;;;;;5.26;100.00;69091.84;5326744;33;33263;-86
2023/12/21 15:11:41;;;;;;;11.27;5.90;;;;;;;5.17;100.00;69082.00;5337427;33;33740;-87
2023/12/21 15:14:45;;;;;;;11.50;5.72;;;;;;;5.13;100.00;69136.22;5338826;33;33361;-86
2023/12/21 15:17:48;;;;;;;16.00;5.60;;;;;;;5.15;100.00;69079.72;5326824;33;33563;-86
2023/12/21 15:20:52;;;;;;;12.15;6.62;;;;;;;5.08;100.00;69074.25;5316352;33;34080;-86
2023/12/21 15:23:55;;;;;;;10.43;5.72;;;;;;;5.07;100.00;69073.69;5327368;33;32987;-86
2023/12/21 15:26:58;;;;;;;13.73;6.57;;;;;;;5.10;100.00;69134.81;5326793;33;33320;-86
2023/12/21 15:30:01;;;;;;;10.25;5.72;;;;;;;4.98;100.00;69060.63;5334809;33;160142;-86
2023/12/21 15:33:04;;;;;;;11.15;5.65;;;;;;;4.96;100.00;69058.31;5324107;33;32989;-87
2023/12/21 15:36:10;;;;;;;15.35;6.95;;;;;;;4.96;100.00;69058.88;5324871;33;33957;-87
2023/12/21 15:39:17;;;;;;;14.87;7.20;;;;;;;4.88;100.00;69107.84;5336800;33;33365;-86
2023/12/21 15:42:21;;;;;;;11.20;5.85;;;;;;;4.73;100.00;69034.94;5336438;33;33372;-86
2023/12/21 15:45:24;;;;;;;13.27;6.62;;;;;;;4.74;100.00;69036.66;5336844;33;34203;-86
2023/12/21 15:48:27;;;;;;;13.13;6.32;;;;;;;4.80;100.00;69098.63;5326337;33;34201;-86
2023/12/21 15:51:30;;;;;;;12.52;6.12;;;;;;;4.66;100.00;69024.19;5313607;33;34047;-87
2023/12/21 15:54:33;;;;;;;12.90;6.28;;;;;;;4.63;100.00;69023.94;5326343;33;34419;-86
2023/12/21 15:57:37;;;;;;;16.60;7.12;;;;;;;4.61;100.00;69021.06;5314704;33;33236;-86
2023/12/21 16:00:40;;;;;;;12.90;6.22;;;;;;;4.57;100.00;69069.91;5326200;33;33072;-86
2023/12/21 16:03:43;;;;;;;13.07;7.30;;;;;;;4.58;100.00;69073.72;5325998;33;33204;-86
